Aeroporto :
LOGIN :

Iscrizione | Disclaimer

   EN    FR    IT 

 










Sommario :    VFR   VFR Marginale   IFR   IFR Intensivo   IFR Molto Intensivo
Visibilità : 
Base nubi : 
>= 8 km
>= 3000ft
5 / 8 km
1000 / 3000 ft
1500m / 5 km
500 / 1000 ft
800 / 1500m
200 / 500 ft
< 800m
< 200 ft
Simboli :   Temporali  Nebbia  Neve Forte  Precipitazioni Forti  Vento > 20 kt
SIGMETs :   Varie  Temporali  Ghiacco  Turbolenza  Onda orograficha  Ceneri Vulcaniche






- Altitudine del aeroporto : 306 ft
- Codice IATA : EMA


EGNX - Nottingham East Midlands

ULTIMO METAR :
  • 190520Z 20006KT CAVOK 17/14 Q1018

METARs OBSOLETI :
  • 190450Z 20007KT CAVOK 17/14 Q1018
  • 190420Z 20007KT CAVOK 17/14 Q1018
  • 190350Z 20007KT CAVOK 17/14 Q1018
  • 190320Z 20006KT CAVOK 17/14 Q1017
  • 190250Z 20006KT CAVOK 18/14 Q1017
  • 190220Z 21007KT CAVOK 18/14 Q1017
  • 190150Z 19006KT CAVOK 18/14 Q1018
  • 190120Z 18005KT 140V220 CAVOK 19/14 Q1018
  • 190050Z 17005KT 160V220 CAVOK 19/14 Q1018

TAF TAF EGNX
Valido dal 19 a 06 ore il 20 a 06 ore UTC


190500Z 1906/2006 19006KT CAVOK
PROB30
TEMPO 2004/2006 BKN030
ATIS : +44 1332 852 852 (ext 3201)



MetMap, La meteo Aeronautica in un colpo d'occhio ! - Copyright ORBIFLY Dicembre 2007 - Disclaimer

ORBIFLY MET'MAP TEAM :

Programmazione e sviluppo : Alexandra Zaïnal
Concezione : Baudouin d'Aumeries
Supporto tecnico e logistico : Manuel Goepfert
Aiuto : Marc-Olivier Méhu
Aiuto per la traduzione : Arnaldo La Scala




FONTI E CREDITI :

   NOAA